Time;durP1;ratioP1;P1;durP2;ratioP2;P2;SDS_P1;SDS_P2;PMS_P1;PMS_P2;Temp;Humidity;BMP_temperature;BMP_pressure;BME280_temperature;BME280_humidity;BME280_pressure;Samples;Min_cycle;Max_cycle;Signal;HPM_P1;HPM_P2
2022/05/04 00:00:11;;;;;;;8.67;5.70;;;;;;;;;;2105686;28;20101;-59
2022/05/04 00:01:12;;;;;;;7.20;5.03;;;;;;;;;;2105834;28;20060;-59
2022/05/04 00:02:13;;;;;;;8.77;5.20;;;;;;;;;;2105699;28;20097;-59
2022/05/04 00:03:14;;;;;;;7.55;5.28;;;;;;;;;;2105756;28;20044;-59
2022/05/04 00:04:15;;;;;;;8.53;5.13;;;;;;;;;;2105604;28;20135;-58
2022/05/04 00:05:16;;;;;;;9.00;5.50;;;;;;;;;;2105875;28;20071;-59
2022/05/04 00:06:18;;;;;;;10.73;5.60;;;;;;;;;;2105735;28;20493;-59
2022/05/04 00:07:18;;;;;;;6.60;5.07;;;;;;;;;;2105874;28;20050;-59
2022/05/04 00:08:20;;;;;;;10.57;5.63;;;;;;;;;;2105660;28;20485;-59
2022/05/04 00:09:22;;;;;;;6.50;4.93;;;;;;;;;;2105544;28;20405;-59
2022/05/04 00:10:24;;;;;;;8.95;4.82;;;;;;;;;;2105700;28;20097;-59
2022/05/04 00:11:25;;;;;;;7.88;5.32;;;;;;;;;;2105837;28;20054;-59
2022/05/04 00:12:26;;;;;;;7.43;4.57;;;;;;;;;;2097328;28;20112;-59
2022/05/04 00:13:27;;;;;;;8.40;5.30;;;;;;;;;;2097255;28;20078;-59
2022/05/04 00:14:29;;;;;;;7.78;6.07;;;;;;;;;;2097346;28;20135;-59
2022/05/04 00:15:30;;;;;;;9.23;5.38;;;;;;;;;;2097241;28;20131;-59
2022/05/04 00:16:31;;;;;;;7.80;5.65;;;;;;;;;;2097355;28;20044;-59
2022/05/04 00:17:32;;;;;;;7.50;5.65;;;;;;;;;;2097258;28;20049;-59
2022/05/04 00:18:33;;;;;;;9.23;5.35;;;;;;;;;;2095219;28;20044;-59
2022/05/04 00:19:35;;;;;;;8.20;5.55;;;;;;;;;;2088872;28;20102;-59
2022/05/04 00:20:37;;;;;;;8.50;5.63;;;;;;;;;;2089049;28;20179;-59
2022/05/04 00:21:38;;;;;;;;;;;;;;;;;;2089354;28;20494;-59
2022/05/04 00:22:38;;;;;;;7.10;4.93;;;;;;;;;;2089094;28;19921;-59
2022/05/04 00:23:40;;;;;;;8.07;4.65;;;;;;;;;;2089024;28;20436;-47
2022/05/04 00:24:41;;;;;;;7.22;4.78;;;;;;;;;;2088928;28;20123;-49
2022/05/04 00:25:42;;;;;;;9.65;4.78;;;;;;;;;;2089066;28;20102;-46
2022/05/04 00:26:43;;;;;;;8.40;5.00;;;;;;;;;;2100284;28;20075;-47
2022/05/04 00:27:45;;;;;;;7.87;4.57;;;;;;;;;;2105677;28;20120;-46
2022/05/04 00:28:45;;;;;;;6.38;4.28;;;;;;;;;;2105520;28;20044;-50
2022/05/04 00:29:47;;;;;;;7.70;4.75;;;;;;;;;;2105678;28;20132;-46
2022/05/04 00:30:48;;;;;;;9.05;4.95;;;;;;;;;;2105626;28;20051;-49
2022/05/04 00:31:49;;;;;;;6.30;4.73;;;;;;;;;;2105774;28;20048;-47
2022/05/04 00:32:50;;;;;;;8.60;4.60;;;;;;;;;;2105779;28;20379;-59
2022/05/04 00:33:51;;;;;;;9.45;5.05;;;;;;;;;;2105516;28;20500;-59
2022/05/04 00:34:52;;;;;;;6.20;4.47;;;;;;;;;;2105870;28;20127;-59
2022/05/04 00:35:53;;;;;;;5.23;3.93;;;;;;;;;;2105658;28;20365;-59
2022/05/04 00:36:54;;;;;;;6.68;4.35;;;;;;;;;;2105906;28;20108;-59
2022/05/04 00:37:56;;;;;;;7.50;5.13;;;;;;;;;;2105566;28;20047;-59
2022/05/04 00:38:56;;;;;;;6.35;4.38;;;;;;;;;;2105644;28;20139;-59
2022/05/04 00:39:58;;;;;;;6.87;4.53;;;;;;;;;;2105461;28;20040;-59
2022/05/04 00:40:59;;;;;;;7.25;4.25;;;;;;;;;;2105450;28;20400;-59
2022/05/04 00:42:10;;;;;;;9.32;4.72;;;;;;;;;;2105578;28;20044;-59
2022/05/04 00:43:21;;;;;;;7.65;4.45;;;;;;;;;;2105617;28;20127;-59
2022/05/04 00:44:22;;;;;;;7.38;4.45;;;;;;;;;;2105434;28;20119;-59
2022/05/04 00:45:23;;;;;;;8.17;4.43;;;;;;;;;;2105455;28;20485;-59
2022/05/04 00:46:24;;;;;;;6.15;4.50;;;;;;;;;;2105416;28;20405;-59
2022/05/04 00:47:26;;;;;;;7.07;4.38;;;;;;;;;;2105581;28;20222;-59
2022/05/04 00:48:27;;;;;;;5.17;4.13;;;;;;;;;;2105632;28;20409;-47
2022/05/04 00:49:28;;;;;;;7.78;4.57;;;;;;;;;;2105410;28;20130;-47
2022/05/04 00:50:29;;;;;;;6.50;5.07;;;;;;;;;;2105611;28;20079;-48
2022/05/04 00:51:30;;;;;;;7.65;4.38;;;;;;;;;;2106417;28;20048;-47
2022/05/04 00:52:32;;;;;;;6.65;4.35;;;;;;;;;;2106825;28;20048;-49
2022/05/04 00:53:33;;;;;;;6.47;4.93;;;;;;;;;;2106841;28;20048;-50
2022/05/04 00:54:35;;;;;;;6.35;4.72;;;;;;;;;;2107005;28;20072;-47
2022/05/04 00:55:37;;;;;;;6.55;4.38;;;;;;;;;;2106923;28;20125;-47
2022/05/04 00:56:38;;;;;;;6.32;4.45;;;;;;;;;;2106860;28;20044;-48
2022/05/04 00:59:00;;;;;;;5.00;4.07;;;;;;;;;;2106977;28;20135;-47
2022/05/04 01:00:01;;;;;;;6.85;4.82;;;;;;;;;;2106753;28;20040;-47
2022/05/04 01:01:02;;;;;;;5.23;4.10;;;;;;;;;;2107023;28;20131;-47
2022/05/04 01:02:04;;;;;;;6.20;4.13;;;;;;;;;;2107128;28;20044;-47
2022/05/04 01:03:05;;;;;;;6.85;4.57;;;;;;;;;;2106783;28;20503;-47
2022/05/04 01:04:06;;;;;;;8.38;5.10;;;;;;;;;;2106961;28;20282;-48
2022/05/04 01:05:09;;;;;;;7.70;4.57;;;;;;;;;;2106758;28;20382;-48
2022/05/04 01:06:10;;;;;;;5.70;4.00;;;;;;;;;;2106818;28;20040;-49
2022/05/04 01:07:11;;;;;;;6.57;4.30;;;;;;;;;;2106885;28;20055;-47
2022/05/04 01:08:12;;;;;;;7.05;4.53;;;;;;;;;;2102778;28;20056;-47
2022/05/04 01:09:14;;;;;;;5.97;4.07;;;;;;;;;;2098352;28;20071;-46
2022/05/04 01:10:15;;;;;;;6.93;4.50;;;;;;;;;;2098473;28;20761;-46
2022/05/04 01:11:18;;;;;;;10.15;4.95;;;;;;;;;;2098558;28;20157;-47
2022/05/04 01:12:21;;;;;;;6.43;4.00;;;;;;;;;;2098643;28;20214;-47
2022/05/04 01:13:22;;;;;;;7.15;4.50;;;;;;;;;;2098249;28;20593;-49
2022/05/04 01:14:23;;;;;;;6.15;4.07;;;;;;;;;;2098488;28;20049;-47
2022/05/04 01:15:24;;;;;;;6.73;4.70;;;;;;;;;;2098395;28;20527;-47
2022/05/04 01:16:25;;;;;;;6.90;4.60;;;;;;;;;;2098374;28;20047;-47
2022/05/04 01:17:27;;;;;;;6.77;4.50;;;;;;;;;;2098531;28;20048;-47
2022/05/04 01:18:28;;;;;;;;;;;;;;;;;;2097406;28;20117;-47
2022/05/04 01:19:29;;;;;;;7.82;4.10;;;;;;;;;;2090121;28;19940;-47
2022/05/04 01:20:30;;;;;;;8.07;4.57;;;;;;;;;;2090197;28;20059;-47
2022/05/04 01:21:31;;;;;;;8.30;4.87;;;;;;;;;;2090268;28;20430;-48
2022/05/04 01:22:33;;;;;;;5.75;4.30;;;;;;;;;;2094231;28;20055;-46
2022/05/04 01:23:34;;;;;;;7.75;4.15;;;;;;;;;;2106863;28;20131;-46
2022/05/04 01:24:35;;;;;;;7.38;3.97;;;;;;;;;;2106820;28;20127;-47
2022/05/04 01:25:37;;;;;;;8.47;4.43;;;;;;;;;;2106911;28;20508;-59
2022/05/04 01:26:38;;;;;;;6.38;4.18;;;;;;;;;;2106852;28;20174;-59
2022/05/04 01:27:39;;;;;;;8.32;4.53;;;;;;;;;;2106695;28;20044;-59
2022/05/04 01:28:40;;;;;;;6.17;4.70;;;;;;;;;;2106702;28;20047;-59
2022/05/04 01:29:41;;;;;;;6.05;3.50;;;;;;;;;;2106605;28;20139;-60
2022/05/04 01:30:42;;;;;;;7.47;4.70;;;;;;;;;;2106745;28;20052;-59
2022/05/04 01:31:43;;;;;;;4.82;3.40;;;;;;;;;;2106764;28;20087;-59
2022/05/04 01:32:44;;;;;;;7.05;4.07;;;;;;;;;;2106686;28;20118;-59
2022/05/04 01:33:45;;;;;;;6.05;4.22;;;;;;;;;;2106617;28;20124;-59
2022/05/04 01:34:46;;;;;;;7.73;4.50;;;;;;;;;;2106758;28;20178;-59
2022/05/04 01:35:48;;;;;;;6.80;4.45;;;;;;;;;;2106767;28;20131;-59
2022/05/04 01:36:49;;;;;;;5.63;3.85;;;;;;;;;;2106855;28;20052;-59
2022/05/04 01:37:51;;;;;;;7.13;4.33;;;;;;;;;;2106717;28;20087;-59
2022/05/04 01:38:51;;;;;;;5.43;4.00;;;;;;;;;;2106521;28;20048;-59
2022/05/04 01:39:53;;;;;;;7.80;4.38;;;;;;;;;;2106703;28;20129;-59
2022/05/04 01:40:54;;;;;;;;;;;;;;;;;;2107179;28;20354;-59
2022/05/04 01:42:05;;;;;;;6.47;4.00;;;;;;;;;;2106699;28;19920;-59
2022/05/04 01:43:06;;;;;;;7.93;4.20;;;;;;;;;;2106613;28;20044;-59
2022/05/04 01:44:07;;;;;;;6.97;4.23;;;;;;;;;;2106535;28;20151;-59
2022/05/04 01:45:09;;;;;;;5.72;4.00;;;;;;;;;;2106692;28;20284;-59
2022/05/04 01:46:10;;;;;;;5.25;3.72;;;;;;;;;;2106714;28;20119;-60
2022/05/04 01:47:11;;;;;;;5.72;4.43;;;;;;;;;;2106696;28;20052;-59
2022/05/04 01:48:12;;;;;;;5.17;3.67;;;;;;;;;;2106550;28;20105;-59
2022/05/04 01:49:13;;;;;;;4.38;3.65;;;;;;;;;;2106626;28;20054;-59
2022/05/04 01:50:15;;;;;;;5.68;3.78;;;;;;;;;;2106503;28;20367;-59
2022/05/04 01:51:16;;;;;;;6.43;4.10;;;;;;;;;;2106621;28;20044;-59
2022/05/04 01:52:17;;;;;;;6.22;4.30;;;;;;;;;;2106532;28;20143;-59
2022/05/04 01:53:19;;;;;;;5.20;3.90;;;;;;;;;;2106593;28;20051;-59
2022/05/04 01:54:20;;;;;;;6.88;4.75;;;;;;;;;;2106396;28;20069;-59
2022/05/04 01:55:22;;;;;;;8.40;4.32;;;;;;;;;;2106546;28;20413;-59
2022/05/04 01:56:23;;;;;;;7.55;3.85;;;;;;;;;;2106478;28;20138;-59
2022/05/04 01:57:24;;;;;;;8.38;4.18;;;;;;;;;;2106665;28;20044;-59
2022/05/04 01:58:25;;;;;;;7.13;4.93;;;;;;;;;;2106553;28;20052;-60
2022/05/04 01:59:26;;;;;;;6.27;4.30;;;;;;;;;;2106397;28;20098;-59
2022/05/04 02:00:27;;;;;;;6.63;4.00;;;;;;;;;;2106565;28;20291;-59
2022/05/04 02:01:29;;;;;;;5.95;4.30;;;;;;;;;;2106396;28;20495;-59
2022/05/04 02:02:30;;;;;;;5.85;4.38;;;;;;;;;;2106217;28;20044;-59
2022/05/04 02:03:31;;;;;;;9.18;4.40;;;;;;;;;;2105888;28;20450;-59
2022/05/04 02:04:32;;;;;;;7.25;4.13;;;;;;;;;;2101711;28;20136;-59
2022/05/04 02:05:34;;;;;;;8.82;4.90;;;;;;;;;;2098095;28;20466;-59
2022/05/04 02:06:35;;;;;;;5.45;3.88;;;;;;;;;;2098292;28;20568;-59
2022/05/04 02:07:36;;;;;;;7.45;3.95;;;;;;;;;;2098021;28;20565;-59
2022/05/04 02:08:38;;;;;;;7.32;4.28;;;;;;;;;;2098216;28;20498;-59
2022/05/04 02:09:39;;;;;;;;;;;;;;;;;;2098630;28;20110;-59
2022/05/04 02:10:40;;;;;;;7.50;4.30;;;;;;;;;;2098214;28;20386;-59
2022/05/04 02:11:41;;;;;;;7.35;4.57;;;;;;;;;;2098217;28;20045;-59
2022/05/04 02:12:43;;;;;;;8.23;4.80;;;;;;;;;;2098035;28;20387;-59
2022/05/04 02:13:44;;;;;;;6.28;4.18;;;;;;;;;;2098111;28;20059;-59
2022/05/04 02:14:45;;;;;;;6.63;4.65;;;;;;;;;;2098045;28;20044;-59
2022/05/04 02:15:46;;;;;;;7.25;4.07;;;;;;;;;;2098141;28;20058;-59
2022/05/04 02:16:47;;;;;;;8.17;5.13;;;;;;;;;;2097989;28;20068;-59
2022/05/04 02:17:49;;;;;;;6.28;4.40;;;;;;;;;;2098029;28;20462;-59
2022/05/04 02:18:50;;;;;;;7.88;4.72;;;;;;;;;;2098414;28;20041;-59
2022/05/04 02:19:51;;;;;;;7.25;4.30;;;;;;;;;;2106504;28;20101;-60
2022/05/04 02:20:52;;;;;;;;;;;;;;;;;;2106946;28;20059;-59
2022/05/04 02:21:53;;;;;;;7.00;3.83;;;;;;;;;;2106301;28;19955;-59
2022/05/04 02:22:54;;;;;;;6.60;4.20;;;;;;;;;;2106420;28;20050;-59
2022/05/04 02:23:56;;;;;;;6.47;4.33;;;;;;;;;;2106198;28;20064;-59
2022/05/04 02:24:57;;;;;;;6.47;4.45;;;;;;;;;;2106425;28;20465;-59
2022/05/04 02:25:58;;;;;;;7.23;4.20;;;;;;;;;;2106330;28;20142;-59
2022/05/04 02:26:59;;;;;;;7.40;4.43;;;;;;;;;;2106454;28;20059;-59
2022/05/04 02:28:00;;;;;;;5.83;3.97;;;;;;;;;;2106379;28;20146;-59
2022/05/04 02:29:01;;;;;;;6.45;4.25;;;;;;;;;;2106332;28;20047;-59
2022/05/04 02:30:03;;;;;;;7.87;4.63;;;;;;;;;;2106347;28;20512;-59
2022/05/04 02:31:04;;;;;;;6.85;4.40;;;;;;;;;;2106410;28;20118;-59
2022/05/04 02:32:05;;;;;;;5.95;4.05;;;;;;;;;;2106436;28;20040;-59
2022/05/04 02:33:07;;;;;;;7.57;4.55;;;;;;;;;;2106235;28;20044;-59
2022/05/04 02:34:08;;;;;;;6.77;4.47;;;;;;;;;;2106325;28;20074;-59
2022/05/04 02:37:57;;;;;;;7.30;4.10;;;;;;;;;;2106411;28;20177;-59
2022/05/04 02:38:59;;;;;;;6.13;3.88;;;;;;;;;;2106464;28;20058;-47
2022/05/04 02:40:00;;;;;;;7.53;4.60;;;;;;;;;;2106201;28;20123;-47
2022/05/04 02:41:01;;;;;;;11.25;4.47;;;;;;;;;;2106339;28;20127;-46
2022/05/04 02:42:02;;;;;;;6.53;3.95;;;;;;;;;;2106187;28;20270;-47
2022/05/04 02:43:06;;;;;;;10.32;4.72;;;;;;;;;;2106306;28;20408;-47
2022/05/04 02:44:07;;;;;;;6.88;4.35;;;;;;;;;;2106176;28;20050;-47
2022/05/04 02:45:08;;;;;;;5.32;3.78;;;;;;;;;;2106237;28;20050;-46
2022/05/04 02:46:13;;;;;;;5.22;3.88;;;;;;;;;;2106517;28;20177;-59
2022/05/04 02:47:14;;;;;;;7.25;4.28;;;;;;;;;;2106255;28;20128;-59
2022/05/04 02:48:15;;;;;;;6.63;4.10;;;;;;;;;;2106234;28;20048;-59
2022/05/04 02:49:17;;;;;;;7.90;3.67;;;;;;;;;;2106214;28;20519;-59
2022/05/04 02:50:17;;;;;;;6.10;4.30;;;;;;;;;;2106128;28;20134;-59
2022/05/04 02:51:19;;;;;;;6.78;3.85;;;;;;;;;;2106397;28;20044;-59
2022/05/04 02:52:19;;;;;;;7.43;4.03;;;;;;;;;;2106154;28;20405;-59
2022/05/04 02:53:21;;;;;;;9.40;4.93;;;;;;;;;;2106214;28;20135;-59
2022/05/04 02:54:22;;;;;;;8.10;4.45;;;;;;;;;;2106185;28;20044;-60
2022/05/04 02:55:26;;;;;;;8.00;4.90;;;;;;;;;;2106004;28;20047;-59
2022/05/04 02:56:27;;;;;;;8.50;5.03;;;;;;;;;;2106218;28;20047;-59
2022/05/04 02:57:28;;;;;;;7.77;4.97;;;;;;;;;;2106093;28;20491;-59
2022/05/04 02:58:29;;;;;;;9.05;4.60;;;;;;;;;;2106066;28;20135;-59
2022/05/04 02:59:30;;;;;;;8.77;4.45;;;;;;;;;;2106124;28;20044;-59
2022/05/04 03:00:31;;;;;;;7.35;4.03;;;;;;;;;;2103594;28;20078;-59
2022/05/04 03:02:53;;;;;;;8.40;4.38;;;;;;;;;;2097864;28;20048;-59
2022/05/04 03:03:54;;;;;;;5.88;4.57;;;;;;;;;;2097697;28;20066;-60
2022/05/04 03:04:56;;;;;;;6.97;3.80;;;;;;;;;;2097683;28;20048;-59
2022/05/04 03:05:57;;;;;;;6.47;4.35;;;;;;;;;;2097717;28;20131;-58
2022/05/04 03:06:58;;;;;;;6.55;3.97;;;;;;;;;;2097807;28;20132;-59
2022/05/04 03:08:00;;;;;;;7.30;4.35;;;;;;;;;;2097751;28;20048;-59
2022/05/04 03:09:02;;;;;;;8.02;4.38;;;;;;;;;;2097613;28;20037;-59
2022/05/04 03:10:04;;;;;;;4.30;3.40;;;;;;;;;;2097813;28;20131;-59
2022/05/04 03:12:25;;;;;;;5.57;3.50;;;;;;;;;;2097792;28;20127;-59
2022/05/04 03:13:26;;;;;;;4.35;3.13;;;;;;;;;;2097766;28;20113;-46
2022/05/04 03:14:27;;;;;;;5.93;3.60;;;;;;;;;;2097008;28;20131;-46
2022/05/04 03:15:29;;;;;;;6.75;4.35;;;;;;;;;;2102739;28;20090;-46
2022/05/04 03:16:29;;;;;;;7.45;3.80;;;;;;;;;;2105992;28;20134;-46
2022/05/04 03:17:31;;;;;;;5.57;3.90;;;;;;;;;;2106034;28;20044;-46
2022/05/04 03:18:32;;;;;;;6.53;3.38;;;;;;;;;;2104031;28;20052;-46
2022/05/04 03:19:37;;;;;;;6.22;3.75;;;;;;;;;;2097574;28;20052;-46
2022/05/04 03:20:38;;;;;;;6.70;3.67;;;;;;;;;;2097603;28;20631;-46
2022/05/04 03:21:39;;;;;;;4.57;3.43;;;;;;;;;;2097750;28;20053;-46
2022/05/04 03:22:40;;;;;;;6.88;3.63;;;;;;;;;;2097725;28;20123;-46
2022/05/04 03:23:41;;;;;;;4.95;3.22;;;;;;;;;;2097646;28;20136;-46
2022/05/04 03:24:43;;;;;;;6.87;3.57;;;;;;;;;;2097571;28;20044;-47
2022/05/04 03:25:44;;;;;;;4.88;3.38;;;;;;;;;;2097720;28;20132;-47
2022/05/04 03:26:45;;;;;;;5.32;3.00;;;;;;;;;;2097603;28;20123;-46
2022/05/04 03:27:46;;;;;;;5.10;3.22;;;;;;;;;;2097724;28;20174;-46
2022/05/04 03:28:47;;;;;;;5.15;3.35;;;;;;;;;;2097449;28;20601;-47
2022/05/04 03:29:49;;;;;;;5.00;3.53;;;;;;;;;;2097753;28;20048;-46
2022/05/04 03:30:50;;;;;;;5.72;3.42;;;;;;;;;;2097637;28;20370;-46
2022/05/04 03:31:51;;;;;;;8.47;3.73;;;;;;;;;;2097591;28;20052;-47
2022/05/04 03:32:52;;;;;;;5.20;3.47;;;;;;;;;;2097707;28;20040;-59
2022/05/04 03:33:53;;;;;;;5.07;3.55;;;;;;;;;;2097627;28;20071;-59
2022/05/04 03:34:55;;;;;;;7.60;3.20;;;;;;;;;;2097533;28;20044;-59
2022/05/04 03:35:55;;;;;;;6.55;3.53;;;;;;;;;;2097548;28;20348;-59
2022/05/04 03:36:58;;;;;;;5.35;3.50;;;;;;;;;;2097822;28;20098;-59
2022/05/04 03:37:59;;;;;;;6.35;4.25;;;;;;;;;;2097409;28;20040;-60
2022/05/04 03:39:01;;;;;;;4.60;3.20;;;;;;;;;;2097619;28;20041;-59
2022/05/04 03:40:02;;;;;;;5.72;3.53;;;;;;;;;;2097524;28;20127;-59
2022/05/04 03:41:04;;;;;;;4.68;2.90;;;;;;;;;;2097430;28;20443;-59
2022/05/04 03:42:05;;;;;;;;;;;;;;;;;;2097942;28;20147;-59
2022/05/04 03:43:06;;;;;;;5.15;3.20;;;;;;;;;;2097443;28;19969;-59
2022/05/04 03:44:07;;;;;;;4.70;3.17;;;;;;;;;;2097574;28;20113;-59
2022/05/04 03:45:09;;;;;;;7.22;3.38;;;;;;;;;;2097377;28;20045;-59
2022/05/04 03:46:13;;;;;;;4.82;3.30;;;;;;;;;;2097575;28;20132;-59
2022/05/04 03:47:15;;;;;;;4.35;2.85;;;;;;;;;;2097459;28;20047;-59
2022/05/04 03:48:16;;;;;;;4.90;3.00;;;;;;;;;;2097442;28;20584;-59
2022/05/04 03:49:17;;;;;;;5.05;3.08;;;;;;;;;;2097425;28;20044;-59
2022/05/04 03:50:18;;;;;;;7.65;4.32;;;;;;;;;;2097560;28;20132;-59
2022/05/04 03:51:20;;;;;;;6.13;3.27;;;;;;;;;;2097385;28;20426;-59
2022/05/04 03:52:21;;;;;;;5.95;3.70;;;;;;;;;;2097613;28;20072;-59
2022/05/04 03:53:23;;;;;;;5.32;3.45;;;;;;;;;;2097360;28;20051;-59
2022/05/04 03:54:25;;;;;;;4.88;3.22;;;;;;;;;;2097282;28;20048;-59
2022/05/04 03:55:25;;;;;;;;;;;;;;;;;;2097807;28;20554;-59
2022/05/04 03:56:27;;;;;;;4.15;3.05;;;;;;;;;;2097485;28;19966;-59
2022/05/04 03:57:28;;;;;;;4.85;3.25;;;;;;;;;;2097470;28;20135;-59
2022/05/04 03:58:29;;;;;;;5.07;3.38;;;;;;;;;;2097250;28;20165;-59
2022/05/04 03:59:31;;;;;;;5.23;3.43;;;;;;;;;;2097446;28;20048;-59
2022/05/04 04:00:32;;;;;;;5.88;3.78;;;;;;;;;;2097396;28;20512;-59
2022/05/04 04:01:33;;;;;;;4.30;3.50;;;;;;;;;;2097339;28;20048;-59
2022/05/04 04:02:34;;;;;;;5.47;3.42;;;;;;;;;;2097284;28;20107;-59
2022/05/04 04:03:36;;;;;;;5.38;3.60;;;;;;;;;;2097626;28;20048;-46
2022/05/04 04:04:37;;;;;;;10.02;3.22;;;;;;;;;;2097251;28;20181;-48
2022/05/04 04:05:38;;;;;;;5.80;4.03;;;;;;;;;;2097531;28;20048;-47
2022/05/04 04:06:39;;;;;;;6.65;3.35;;;;;;;;;;2097443;28;20045;-48
2022/05/04 04:07:40;;;;;;;7.45;3.40;;;;;;;;;;2097286;28;20055;-46
2022/05/04 04:08:41;;;;;;;5.00;3.15;;;;;;;;;;2097495;28;20056;-59
2022/05/04 04:09:42;;;;;;;5.28;3.50;;;;;;;;;;2097260;28;20044;-59
2022/05/04 04:10:43;;;;;;;4.97;3.10;;;;;;;;;;2097445;28;20052;-59
2022/05/04 04:11:45;;;;;;;5.13;3.47;;;;;;;;;;2102975;28;20536;-59
2022/05/04 04:12:46;;;;;;;5.13;3.40;;;;;;;;;;2105600;28;20079;-59
2022/05/04 04:13:47;;;;;;;7.00;3.33;;;;;;;;;;2105562;28;20052;-59
2022/05/04 04:14:48;;;;;;;5.32;3.17;;;;;;;;;;2105823;28;20040;-59
2022/05/04 04:15:51;;;;;;;4.47;3.33;;;;;;;;;;2105744;28;20048;-59
2022/05/04 04:16:53;;;;;;;5.57;3.40;;;;;;;;;;2105947;28;20086;-59
2022/05/04 04:17:54;;;;;;;5.18;3.25;;;;;;;;;;2105778;28;20048;-59
2022/05/04 04:18:55;;;;;;;6.93;3.40;;;;;;;;;;2100381;28;20482;-59
2022/05/04 04:22:31;;;;;;;7.47;3.47;;;;;;;;;;2097302;28;20147;-59
2022/05/04 04:23:33;;;;;;;6.53;3.50;;;;;;;;;;2097152;28;20059;-59
2022/05/04 04:24:34;;;;;;;5.85;3.95;;;;;;;;;;2097305;28;20131;-59
2022/05/04 04:25:35;;;;;;;5.70;3.40;;;;;;;;;;2097461;28;20127;-48
2022/05/04 04:26:37;;;;;;;6.73;3.20;;;;;;;;;;2096918;28;20052;-48
2022/05/04 04:27:38;;;;;;;6.32;3.72;;;;;;;;;;2097127;28;20056;-48
2022/05/04 04:28:40;;;;;;;4.50;3.00;;;;;;;;;;2097208;28;20074;-47
2022/05/04 04:29:41;;;;;;;4.47;2.50;;;;;;;;;;2097227;28;20120;-46
2022/05/04 04:30:42;;;;;;;4.97;3.15;;;;;;;;;;2097216;28;20466;-47
2022/05/04 04:31:43;;;;;;;8.15;3.67;;;;;;;;;;2097415;28;20132;-47
2022/05/04 04:32:44;;;;;;;8.90;3.45;;;;;;;;;;2097234;28;20408;-47
2022/05/04 04:33:46;;;;;;;4.88;3.05;;;;;;;;;;2097143;28;20131;-47
2022/05/04 04:34:48;;;;;;;5.15;3.30;;;;;;;;;;2097333;28;20040;-49
2022/05/04 04:35:49;;;;;;;7.45;3.40;;;;;;;;;;2097474;28;20048;-59
2022/05/04 04:36:50;;;;;;;4.75;3.05;;;;;;;;;;2097178;28;20056;-59
2022/05/04 04:37:52;;;;;;;5.32;3.20;;;;;;;;;;2097228;28;20587;-59
2022/05/04 04:38:53;;;;;;;5.47;3.45;;;;;;;;;;2097075;28;20123;-59
2022/05/04 04:39:54;;;;;;;5.75;3.67;;;;;;;;;;2097270;28;20123;-59
2022/05/04 04:40:55;;;;;;;7.50;3.57;;;;;;;;;;2097056;28;20049;-59
2022/05/04 04:41:57;;;;;;;6.18;3.17;;;;;;;;;;2097656;28;20131;-46
2022/05/04 04:43:00;;;;;;;4.25;3.08;;;;;;;;;;2097341;28;20052;-46
2022/05/04 04:44:01;;;;;;;7.90;3.17;;;;;;;;;;2097146;28;20113;-46
2022/05/04 04:45:03;;;;;;;6.40;3.13;;;;;;;;;;2097177;28;20056;-47
2022/05/04 04:46:04;;;;;;;8.27;3.05;;;;;;;;;;2097415;28;20079;-59
2022/05/04 04:47:05;;;;;;;5.75;3.28;;;;;;;;;;2097243;28;20132;-59
2022/05/04 04:48:07;;;;;;;6.47;2.75;;;;;;;;;;2097050;28;20052;-59
2022/05/04 04:49:08;;;;;;;6.90;3.65;;;;;;;;;;2097134;28;20114;-59
2022/05/04 04:50:09;;;;;;;8.17;3.50;;;;;;;;;;2097112;28;20576;-59
2022/05/04 04:51:11;;;;;;;5.47;3.22;;;;;;;;;;2097238;28;20361;-59
2022/05/04 04:52:11;;;;;;;3.53;2.55;;;;;;;;;;2097087;28;20052;-59
2022/05/04 04:53:13;;;;;;;3.47;2.50;;;;;;;;;;2096926;28;20132;-59
2022/05/04 04:54:14;;;;;;;5.05;2.65;;;;;;;;;;2097032;28;20131;-59
2022/05/04 04:55:15;;;;;;;4.82;3.00;;;;;;;;;;2097124;28;20447;-59
2022/05/04 04:56:16;;;;;;;6.90;2.57;;;;;;;;;;2097067;28;20179;-60
2022/05/04 04:57:17;;;;;;;5.53;3.20;;;;;;;;;;2097183;28;20075;-59
2022/05/04 04:58:23;;;;;;;4.45;2.53;;;;;;;;;;2097053;28;20524;-59
2022/05/04 04:59:24;;;;;;;;;;;;;;;;;;2097549;28;20048;-47
2022/05/04 05:00:25;;;;;;;5.97;2.85;;;;;;;;;;2097018;28;19948;-47
2022/05/04 05:01:26;;;;;;;5.90;2.70;;;;;;;;;;2097029;28;20489;-47
2022/05/04 05:02:27;;;;;;;5.38;2.85;;;;;;;;;;2097015;28;20049;-49
2022/05/04 05:03:29;;;;;;;5.37;3.10;;;;;;;;;;2097115;28;20044;-59
2022/05/04 05:04:30;;;;;;;6.70;2.95;;;;;;;;;;2097026;28;20486;-60
2022/05/04 05:05:31;;;;;;;4.23;2.63;;;;;;;;;;2096991;28;20053;-60
2022/05/04 05:06:32;;;;;;;5.78;2.90;;;;;;;;;;2097339;28;20052;-60
2022/05/04 05:07:33;;;;;;;5.85;3.38;;;;;;;;;;2099129;28;20084;-59
2022/05/04 05:08:35;;;;;;;5.70;2.83;;;;;;;;;;2105769;28;20225;-47
2022/05/04 05:09:35;;;;;;;5.70;3.00;;;;;;;;;;2105507;28;20052;-49
2022/05/04 05:10:37;;;;;;;7.07;3.30;;;;;;;;;;2105524;28;20044;-47
2022/05/04 05:11:38;;;;;;;3.97;2.75;;;;;;;;;;2105332;28;20143;-47
2022/05/04 05:12:39;;;;;;;4.68;2.50;;;;;;;;;;2105295;28;20123;-48
2022/05/04 05:16:16;;;;;;;5.70;2.72;;;;;;;;;;2105381;28;20044;-49
2022/05/04 05:17:17;;;;;;;4.97;2.85;;;;;;;;;;2105480;28;20051;-60
2022/05/04 05:18:19;;;;;;;4.70;2.50;;;;;;;;;;2105276;28;20048;-60
2022/05/04 05:19:20;;;;;;;5.90;2.65;;;;;;;;;;2096292;28;20054;-60
2022/05/04 05:20:21;;;;;;;4.20;2.40;;;;;;;;;;2096985;28;20044;-60
2022/05/04 05:21:22;;;;;;;3.40;2.35;;;;;;;;;;2096509;28;20531;-60
2022/05/04 05:22:23;;;;;;;6.18;2.60;;;;;;;;;;2097360;28;20128;-49
2022/05/04 05:23:24;;;;;;;4.90;2.30;;;;;;;;;;2097243;28;20076;-60
2022/05/04 05:24:25;;;;;;;5.07;2.55;;;;;;;;;;2096967;28;20136;-60
2022/05/04 05:25:26;;;;;;;6.30;2.50;;;;;;;;;;2096991;28;20141;-60
2022/05/04 05:26:27;;;;;;;3.45;2.00;;;;;;;;;;2096959;28;20609;-60
2022/05/04 05:27:29;;;;;;;3.93;2.40;;;;;;;;;;2096963;28;20059;-60
2022/05/04 05:28:30;;;;;;;3.80;2.28;;;;;;;;;;2096757;28;20041;-60
2022/05/04 05:29:32;;;;;;;4.18;2.28;;;;;;;;;;2096988;28;20056;-60
2022/05/04 05:30:33;;;;;;;5.40;2.63;;;;;;;;;;2096789;28;20487;-60
2022/05/04 05:31:34;;;;;;;7.40;3.00;;;;;;;;;;2096975;28;20127;-61
2022/05/04 05:32:35;;;;;;;3.60;2.20;;;;;;;;;;2096930;28;20105;-60
2022/05/04 05:33:37;;;;;;;4.60;2.23;;;;;;;;;;2096670;28;20463;-60
2022/05/04 05:34:38;;;;;;;5.85;2.70;;;;;;;;;;2096958;28;20127;-60
2022/05/04 05:35:39;;;;;;;4.43;2.40;;;;;;;;;;2097117;28;20080;-47
2022/05/04 05:36:40;;;;;;;5.90;2.60;;;;;;;;;;2096845;28;20583;-47
2022/05/04 05:37:41;;;;;;;3.33;2.30;;;;;;;;;;2096860;28;20129;-48
2022/05/04 05:38:42;;;;;;;4.55;2.63;;;;;;;;;;2098266;28;20048;-48
2022/05/04 05:39:43;;;;;;;3.67;2.08;;;;;;;;;;2098314;28;20522;-47
2022/05/04 05:40:44;;;;;;;6.57;2.47;;;;;;;;;;2098781;28;20053;-47
2022/05/04 05:41:45;;;;;;;5.57;2.50;;;;;;;;;;2098227;28;20135;-47
2022/05/04 05:42:47;;;;;;;6.00;2.33;;;;;;;;;;2098300;28;20140;-47
2022/05/04 05:43:47;;;;;;;4.65;2.47;;;;;;;;;;2098466;28;20139;-48
2022/05/04 05:44:49;;;;;;;3.40;2.30;;;;;;;;;;2098709;28;20536;-60
2022/05/04 05:45:51;;;;;;;4.65;2.67;;;;;;;;;;2098277;28;20049;-60
2022/05/04 05:46:52;;;;;;;5.63;2.63;;;;;;;;;;2098267;28;20075;-60
2022/05/04 05:47:53;;;;;;;5.17;2.47;;;;;;;;;;2098400;28;20293;-60
2022/05/04 05:48:54;;;;;;;4.38;2.00;;;;;;;;;;2098071;28;20439;-61
2022/05/04 05:49:55;;;;;;;5.83;2.20;;;;;;;;;;2098324;28;20040;-61
2022/05/04 05:50:57;;;;;;;3.75;2.03;;;;;;;;;;2098183;28;20040;-61
2022/05/04 05:51:58;;;;;;;4.57;2.60;;;;;;;;;;2098303;28;20128;-60
2022/05/04 05:52:59;;;;;;;5.88;2.67;;;;;;;;;;2098137;28;20105;-61
2022/05/04 05:54:00;;;;;;;7.07;2.40;;;;;;;;;;2098217;28;20120;-60
2022/05/04 05:55:01;;;;;;;5.78;2.50;;;;;;;;;;2098188;28;20201;-60
2022/05/04 05:56:03;;;;;;;4.40;2.40;;;;;;;;;;2098415;28;20079;-48
2022/05/04 05:57:04;;;;;;;5.18;2.78;;;;;;;;;;2098265;28;20124;-48
2022/05/04 05:58:05;;;;;;;7.25;2.70;;;;;;;;;;2098226;28;20123;-48
2022/05/04 05:59:06;;;;;;;3.33;2.15;;;;;;;;;;2098002;28;20513;-47
2022/05/04 06:00:09;;;;;;;5.87;2.80;;;;;;;;;;2098132;28;20045;-50
2022/05/04 06:01:09;;;;;;;5.22;2.75;;;;;;;;;;2098205;28;20344;-48
2022/05/04 06:02:11;;;;;;;5.00;2.88;;;;;;;;;;2098152;28;20129;-47
2022/05/04 06:03:14;;;;;;;2.88;2.20;;;;;;;;;;2098460;28;20055;-47
2022/05/04 06:04:16;;;;;;;5.55;2.80;;;;;;;;;;2103771;28;20139;-47
2022/05/04 06:05:17;;;;;;;5.30;2.95;;;;;;;;;;2106577;28;20102;-48
2022/05/04 06:06:18;;;;;;;4.80;2.80;;;;;;;;;;2106932;28;20518;-61
2022/05/04 06:07:19;;;;;;;7.97;2.83;;;;;;;;;;2106667;28;20529;-61
2022/05/04 06:08:20;;;;;;;4.90;2.17;;;;;;;;;;2106576;28;20040;-61
2022/05/04 06:09:22;;;;;;;4.85;2.42;;;;;;;;;;2106540;28;20040;-60
2022/05/04 06:10:23;;;;;;;8.45;3.25;;;;;;;;;;2106663;28;20467;-48
2022/05/04 06:11:24;;;;;;;6.13;2.83;;;;;;;;;;2106447;28;20493;-47
2022/05/04 06:12:25;;;;;;;7.47;3.20;;;;;;;;;;2106566;28;20048;-49
2022/05/04 06:13:26;;;;;;;5.30;2.53;;;;;;;;;;2106322;28;20116;-48
2022/05/04 06:14:27;;;;;;;5.90;2.90;;;;;;;;;;2106489;28;20497;-47
2022/05/04 06:15:29;;;;;;;6.53;2.95;;;;;;;;;;2106384;28;20401;-50
2022/05/04 06:16:30;;;;;;;6.63;3.42;;;;;;;;;;2106554;28;20055;-47
2022/05/04 06:17:31;;;;;;;8.70;3.20;;;;;;;;;;2106661;28;20067;-47
2022/05/04 06:18:32;;;;;;;5.85;2.50;;;;;;;;;;2104314;28;20511;-48
2022/05/04 06:19:34;;;;;;;5.47;2.47;;;;;;;;;;2097994;28;20060;-47
2022/05/04 06:20:35;;;;;;;7.15;2.55;;;;;;;;;;2098345;28;20282;-61